Portada
METAR-TAF:

METAR-TAF

Aeropuertos :

Aeropuerto de Estocolmo-Arlanda

Estocolmo-Arlanda, Suecia

latitud: 59-39N, longitud: 017-57E, altitud: 38 m

Observación

El informe se hizo hace 20 minutos, a las 19:50 UTC
Viento 8 kt del norte
Temperatura 13°C
Humedad 94%
Presión 1014 hPa
Visibilidad 10 km o más
Cielo cubierto a una altura de 500 ft

METAR: ESSA 221950Z 35008KT 9999 OVC005 13/12 Q1014 NOSIG

Hora: 22:10 (20:10 UTC)

Pronóstico

El informe se hizo hace 2 horas y 40 minutos, a las 17:30 UTC
Pronóstico válido del 22 a las 18 UTC al 23 a las 18 UTC
Viento 12 kt del norte
Visibilidad 10 km o más
Cielo nuboso a una altura de 1200 ft
Probabilidad 40%
del 22 a las 18 UTC al 23 a las 04 UTC
Cielo nuboso a una altura de 700 ft
Evolucionando progresivamente
del 23 a las 04 UTC al 23 a las 06 UTC
Nubes dispersas a una altura de 4000 ft

TAF: ESSA 221730Z 2218/2318 36012KT 9999 BKN012 PROB40 2218/2304 BKN007 BECMG 2304/2306 SCT040

Observaciones y pronósticos meteorológicos de más de 4000 aeropuertos (mensajes METAR y TAF).

Los puntos amarillos y rojos representan las estaciones disponibles.

Ponga el ratón en el punto deseado para ver el nombre de la estación.

Haga clic para ver las observaciones y los pronósticos meteorológicos.

Para cambiar el mapa : haga clic en los botones verdes con una cruz de color negro para hacer un zoom, en el botón verde con un guión para alejar o en las flechas verdes para mapas adyacentes.


METAR-TAF: